Time;durP1;ratioP1;P1;durP2;ratioP2;P2;SDS_P1;SDS_P2;PMS_P1;PMS_P2;Temp;Humidity;BMP_temperature;BMP_pressure;BME280_temperature;BME280_humidity;BME280_pressure;Samples;Min_cycle;Max_cycle;Signal;HPM_P1;HPM_P2
2021/12/22 10:51:46;;;;;;;9.73;8.05;;;;;;;;;;4937879;29;20268;-84
2021/12/22 10:54:17;;;;;;;10.98;8.48;;;;;;;;;;4939391;29;20207;-83
2021/12/22 10:56:46;;;;;;;9.45;6.85;;;;;;;;;;4938986;29;20564;-84
2021/12/22 10:59:16;;;;;;;7.60;6.85;;;;;;;;;;4939097;29;20206;-84
2021/12/22 11:02:05;;;;;;;13.80;8.70;;;;;;;;;;4939211;29;20204;-84
2021/12/22 11:04:33;;;;;;;7.88;6.68;;;;;;;;;;4937531;29;20211;-84
2021/12/22 11:07:12;;;;;;;14.25;9.77;;;;;;;;;;4935313;29;20209;-86
2021/12/22 11:09:40;;;;;;;11.48;8.10;;;;;;;;;;4936258;29;20316;-85
2021/12/22 11:12:13;;;;;;;11.00;7.75;;;;;;;;;;4943879;29;20213;-86
2021/12/22 11:14:44;;;;;;;10.43;8.45;;;;;;;;;;4954696;29;20608;-86
2021/12/22 11:17:13;;;;;;;10.25;8.18;;;;;;;;;;4952413;29;20243;-85
2021/12/22 11:19:53;;;;;;;10.02;7.53;;;;;;;;;;4935125;29;20240;-86
2021/12/22 11:22:36;;;;;;;7.47;6.07;;;;;;;;;;4935598;29;20213;-87
2021/12/22 11:25:05;;;;;;;8.32;6.75;;;;;;;;;;4943398;29;20211;-86
2021/12/22 11:27:32;;;;;;;8.40;7.00;;;;;;;;;;4954506;29;20197;-86
2021/12/22 11:30:00;;;;;;;11.95;7.80;;;;;;;;;;4954562;28;20228;-86
2021/12/22 11:32:30;;;;;;;8.90;6.88;;;;;;;;;;4954598;29;20201;-86
2021/12/22 11:35:00;;;;;;;7.88;7.07;;;;;;;;;;4954625;28;20276;-85
2021/12/22 11:37:30;;;;;;;10.85;8.38;;;;;;;;;;4951431;28;20206;-86
2021/12/22 11:39:59;;;;;;;10.25;6.57;;;;;;;;;;4935962;29;20229;-86
2021/12/22 11:42:31;;;;;;;7.25;6.13;;;;;;;;;;4935715;29;20472;-83
2021/12/22 11:45:04;;;;;;;5.55;5.03;;;;;;;;;;4935411;29;20288;-84
2021/12/22 11:47:35;;;;;;;7.35;6.65;;;;;;;;;;4935994;29;20189;-85
2021/12/22 11:50:05;;;;;;;6.88;6.18;;;;;;;;;;4936164;29;20233;-84
2021/12/22 11:52:42;;;;;;;8.27;6.07;;;;;;;;;;4936359;29;20235;-84
2021/12/22 11:55:15;;;;;;;5.78;4.88;;;;;;;;;;4936784;29;20213;-84
2021/12/22 11:57:44;;;;;;;6.43;5.03;;;;;;;;;;4936957;29;20197;-83
2021/12/22 12:00:30;;;;;;;6.57;5.40;;;;;;;;;;4937754;29;20241;-86
2021/12/22 12:02:59;;;;;;;8.38;7.43;;;;;;;;;;4935819;29;20182;-83
2021/12/22 12:05:28;;;;;;;8.20;7.15;;;;;;;;;;4936261;29;20202;-85
2021/12/22 12:07:58;;;;;;;8.02;7.22;;;;;;;;;;4936723;29;20189;-84
2021/12/22 12:10:44;;;;;;;8.30;7.22;;;;;;;;;;4936889;29;20274;-85
2021/12/22 12:13:20;;;;;;;8.95;7.22;;;;;;;;;;4936670;29;20194;-83
2021/12/22 12:22:07;;;;;;;8.18;6.97;;;;;;;;;;4939063;29;20208;-84
2021/12/22 12:24:59;;;;;;;7.20;6.53;;;;;;;;;;4939416;29;20211;-84
2021/12/22 12:27:54;;;;;;;7.75;6.72;;;;;;;;;;4939622;29;20244;-83
2021/12/22 12:30:43;;;;;;;9.23;6.72;;;;;;;;;;4939578;29;20370;-84
2021/12/22 12:33:27;;;;;;;7.97;7.18;;;;;;;;;;4938810;29;20209;-83
2021/12/22 12:36:05;;;;;;;9.15;7.90;;;;;;;;;;4938351;29;20233;-84
2021/12/22 12:38:47;;;;;;;7.95;7.15;;;;;;;;;;4939170;29;20205;-84
2021/12/22 12:41:28;;;;;;;6.72;5.88;;;;;;;;;;4938702;29;20230;-84
2021/12/22 12:44:06;;;;;;;5.82;5.22;;;;;;;;;;4938526;29;20206;-84
2021/12/22 12:46:47;;;;;;;7.50;5.22;;;;;;;;;;4938394;29;20576;-83
2021/12/22 12:49:39;;;;;;;6.45;5.82;;;;;;;;;;4937431;29;20214;-85
2021/12/22 12:52:22;;;;;;;8.98;7.65;;;;;;;;;;4937714;29;20664;-85
2021/12/22 12:54:51;;;;;;;8.65;7.82;;;;;;;;;;4937763;29;20209;-84
2021/12/22 12:57:31;;;;;;;9.65;6.78;;;;;;;;;;4937538;29;20241;-84
2021/12/22 13:00:06;;;;;;;10.00;8.90;;;;;;;;;;4937824;29;20289;-84
2021/12/22 13:02:37;;;;;;;6.78;6.07;;;;;;;;;;4937966;29;20233;-84
2021/12/22 13:05:11;;;;;;;8.05;6.22;;;;;;;;;;4937349;29;20213;-84
2021/12/22 13:07:39;;;;;;;10.95;9.05;;;;;;;;;;4937354;29;20202;-83
2021/12/22 13:10:12;;;;;;;10.20;8.80;;;;;;;;;;4937909;29;20233;-84
2021/12/22 13:15:47;;;;;;;12.05;8.95;;;;;;;;;;4937266;29;20197;-85
2021/12/22 13:18:28;;;;;;;12.65;10.25;;;;;;;;;;4937458;29;20288;-84
2021/12/22 13:21:06;;;;;;;9.02;6.95;;;;;;;;;;4936686;29;20233;-84
2021/12/22 13:23:34;;;;;;;11.45;7.75;;;;;;;;;;4938065;29;20560;-84
2021/12/22 13:26:03;;;;;;;7.47;6.57;;;;;;;;;;4937013;29;20210;-84
2021/12/22 13:28:36;;;;;;;6.72;5.65;;;;;;;;;;4937177;29;20740;-84
2021/12/22 13:31:06;;;;;;;6.13;5.55;;;;;;;;;;4935635;29;20225;-83
2021/12/22 13:33:36;;;;;;;7.82;7.03;;;;;;;;;;4936812;29;20198;-85
2021/12/22 13:36:05;;;;;;;7.43;6.68;;;;;;;;;;4937585;29;20221;-84
2021/12/22 13:38:35;;;;;;;11.05;8.27;;;;;;;;;;4937889;29;20300;-84
2021/12/22 13:41:06;;;;;;;10.00;8.70;;;;;;;;;;4937731;29;20229;-84
2021/12/22 13:43:38;;;;;;;7.85;6.70;;;;;;;;;;4937984;29;20578;-84
2021/12/22 13:46:16;;;;;;;7.00;6.00;;;;;;;;;;4938796;29;20197;-84
2021/12/22 13:48:49;;;;;;;7.38;5.78;;;;;;;;;;4938009;29;20202;-85
2021/12/22 13:51:19;;;;;;;7.65;6.85;;;;;;;;;;4938270;29;20245;-84
2021/12/22 13:53:47;;;;;;;8.88;7.53;;;;;;;;;;4938264;29;20211;-85
2021/12/22 13:56:17;;;;;;;9.02;7.82;;;;;;;;;;4938610;29;20221;-84
2021/12/22 13:58:49;;;;;;;7.05;6.32;;;;;;;;;;4938612;29;20210;-84
2021/12/22 14:01:29;;;;;;;8.63;7.65;;;;;;;;;;4938448;29;20244;-85
2021/12/22 14:04:21;;;;;;;7.70;7.00;;;;;;;;;;4938066;29;20676;-84
2021/12/22 14:06:52;;;;;;;10.60;8.82;;;;;;;;;;4923890;29;20209;-84
2021/12/22 14:09:22;;;;;;;12.93;10.45;;;;;;;;;;4938016;29;20229;-84
2021/12/22 14:11:57;;;;;;;13.73;10.75;;;;;;;;;;4938706;29;20202;-84
2021/12/22 14:14:34;;;;;;;9.80;8.60;;;;;;;;;;4937917;29;20201;-83
2021/12/22 14:17:20;;;;;;;9.48;8.48;;;;;;;;;;4937834;29;20229;-84
2021/12/22 14:20:14;;;;;;;11.75;9.98;;;;;;;;;;4938263;29;20722;-84
2021/12/22 14:22:45;;;;;;;12.95;10.48;;;;;;;;;;4938069;29;20233;-83
2021/12/22 14:25:17;;;;;;;12.07;9.38;;;;;;;;;;4937698;29;20209;-84
2021/12/22 14:27:48;;;;;;;11.23;9.35;;;;;;;;;;4938048;29;20611;-84
2021/12/22 14:30:29;;;;;;;10.85;8.88;;;;;;;;;;4937689;29;20218;-84
2021/12/22 14:33:00;;;;;;;9.55;7.90;;;;;;;;;;4938347;29;20227;-83
2021/12/22 14:35:30;;;;;;;9.93;8.18;;;;;;;;;;4937633;29;20289;-85
2021/12/22 14:38:01;;;;;;;10.25;8.98;;;;;;;;;;4937650;29;20225;-85
2021/12/22 14:40:30;;;;;;;9.88;8.68;;;;;;;;;;4938020;29;20694;-83
2021/12/22 14:43:08;;;;;;;7.38;6.68;;;;;;;;;;4937725;29;20201;-83
2021/12/22 14:45:43;;;;;;;11.65;8.15;;;;;;;;;;4937621;29;20208;-83
2021/12/22 14:48:14;;;;;;;9.80;8.75;;;;;;;;;;4937377;29;20581;-83
2021/12/22 14:50:56;;;;;;;8.95;8.15;;;;;;;;;;4937613;29;20237;-84
2021/12/22 14:53:37;;;;;;;13.57;11.45;;;;;;;;;;4938069;29;20190;-84
2021/12/22 14:56:08;;;;;;;13.52;10.52;;;;;;;;;;4937611;29;20193;-84
2021/12/22 14:58:36;;;;;;;10.35;8.93;;;;;;;;;;4937243;29;20722;-83
2021/12/22 15:01:06;;;;;;;8.35;6.82;;;;;;;;;;4937543;29;20236;-84
2021/12/22 15:03:34;;;;;;;7.55;6.68;;;;;;;;;;4937070;29;20202;-83
2021/12/22 15:06:04;;;;;;;8.15;7.38;;;;;;;;;;4937363;29;20277;-84
2021/12/22 15:08:31;;;;;;;10.43;8.63;;;;;;;;;;4937887;29;20209;-84
2021/12/22 15:11:00;;;;;;;10.15;8.52;;;;;;;;;;4937170;29;20217;-83
2021/12/22 15:13:29;;;;;;;10.70;9.65;;;;;;;;;;4937763;29;20294;-85
2021/12/22 15:15:57;;;;;;;7.78;7.05;;;;;;;;;;4937400;29;20217;-84
2021/12/22 15:18:26;;;;;;;8.40;6.65;;;;;;;;;;4937130;29;20233;-83
2021/12/22 15:20:53;;;;;;;30.45;20.42;;;;;;;;;;4937047;29;20229;-84
2021/12/22 15:23:21;;;;;;;27.23;18.75;;;;;;;;;;4937293;29;20202;-84
2021/12/22 15:25:49;;;;;;;56.80;29.02;;;;;;;;;;4936953;29;20315;-84
2021/12/22 15:28:18;;;;;;;16.05;11.90;;;;;;;;;;4937261;29;20202;-84
2021/12/22 15:30:48;;;;;;;15.70;10.45;;;;;;;;;;4936924;29;20234;-84
2021/12/22 15:33:16;;;;;;;12.32;9.85;;;;;;;;;;4937380;29;20241;-84
2021/12/22 15:35:45;;;;;;;9.75;7.55;;;;;;;;;;4937152;29;20583;-84
2021/12/22 15:38:12;;;;;;;11.57;8.43;;;;;;;;;;4936768;29;20604;-84
2021/12/22 15:40:40;;;;;;;12.25;10.25;;;;;;;;;;4937134;29;20233;-83
2021/12/22 15:43:07;;;;;;;10.07;7.72;;;;;;;;;;4937090;29;20212;-85
2021/12/22 15:45:35;;;;;;;10.65;8.38;;;;;;;;;;4937028;29;20209;-84
2021/12/22 15:48:03;;;;;;;9.55;8.65;;;;;;;;;;4937206;29;20236;-84
2021/12/22 15:50:33;;;;;;;12.73;10.07;;;;;;;;;;4936438;29;20628;-84
2021/12/22 15:53:03;;;;;;;15.02;11.50;;;;;;;;;;4938041;29;20200;-84
2021/12/22 15:55:31;;;;;;;13.82;12.40;;;;;;;;;;4942621;29;20208;-80
2021/12/22 15:58:01;;;;;;;14.65;10.77;;;;;;;;;;4945405;29;20225;-82
2021/12/22 16:00:31;;;;;;;13.63;12.20;;;;;;;;;;4944161;29;20269;-80
2021/12/22 16:03:00;;;;;;;16.20;13.32;;;;;;;;;;4944317;29;20208;-80
2021/12/22 16:05:28;;;;;;;18.50;14.20;;;;;;;;;;4943944;29;20193;-82
2021/12/22 16:07:56;;;;;;;14.77;11.95;;;;;;;;;;4944228;29;20240;-83
2021/12/22 16:10:26;;;;;;;23.38;15.85;;;;;;;;;;4944669;29;20234;-83
2021/12/22 16:12:54;;;;;;;23.98;16.35;;;;;;;;;;4945518;29;20209;-82
2021/12/22 16:15:23;;;;;;;16.77;13.68;;;;;;;;;;4945809;29;20210;-83
2021/12/22 16:17:51;;;;;;;15.13;12.07;;;;;;;;;;4945168;29;20249;-81
2021/12/22 16:20:19;;;;;;;15.98;11.48;;;;;;;;;;4944759;29;20237;-80
2021/12/22 16:22:47;;;;;;;13.43;11.70;;;;;;;;;;4944303;29;20210;-80
2021/12/22 16:25:14;;;;;;;12.50;10.98;;;;;;;;;;4944485;29;20582;-80
2021/12/22 16:27:43;;;;;;;16.17;11.93;;;;;;;;;;4944823;29;20205;-80
2021/12/22 16:30:11;;;;;;;17.90;12.40;;;;;;;;;;4943256;29;20228;-81
2021/12/22 16:32:39;;;;;;;17.33;12.80;;;;;;;;;;4943642;29;20275;-80
2021/12/22 16:35:08;;;;;;;15.15;11.40;;;;;;;;;;4944272;29;20213;-82
2021/12/22 16:37:35;;;;;;;12.23;10.02;;;;;;;;;;4944990;29;20202;-80
2021/12/22 16:40:03;;;;;;;16.65;12.60;;;;;;;;;;4945048;29;20225;-81
2021/12/22 16:42:31;;;;;;;16.88;12.40;;;;;;;;;;4945013;29;20212;-82
2021/12/22 16:45:00;;;;;;;16.13;11.43;;;;;;;;;;4944163;29;20220;-80
2021/12/22 16:47:29;;;;;;;15.20;11.63;;;;;;;;;;4946980;29;20216;-82
2021/12/22 16:49:57;;;;;;;18.55;12.20;;;;;;;;;;4947869;29;20242;-82
2021/12/22 16:52:24;;;;;;;14.88;11.57;;;;;;;;;;4948022;29;20239;-82
2021/12/22 16:54:52;;;;;;;15.65;12.43;;;;;;;;;;4947744;29;20200;-82
2021/12/22 16:57:19;;;;;;;19.02;13.73;;;;;;;;;;4946648;29;20205;-82
2021/12/22 16:59:46;;;;;;;11.40;10.02;;;;;;;;;;4945524;29;20241;-82
2021/12/22 17:02:15;;;;;;;18.65;13.55;;;;;;;;;;4939919;29;20208;-82
2021/12/22 17:04:43;;;;;;;17.95;13.20;;;;;;;;;;4950921;28;20193;-82
2021/12/22 17:07:10;;;;;;;15.05;12.60;;;;;;;;;;4960997;29;20205;-82
2021/12/22 17:09:38;;;;;;;13.98;11.38;;;;;;;;;;4960416;29;20221;-82
2021/12/22 17:12:08;;;;;;;16.95;13.20;;;;;;;;;;4950440;29;20210;-82
2021/12/22 17:14:35;;;;;;;18.02;14.07;;;;;;;;;;4942209;29;20608;-82
2021/12/22 17:17:11;;;;;;;17.27;14.50;;;;;;;;;;4941316;29;20209;-82
2021/12/22 17:19:40;;;;;;;21.20;12.75;;;;;;;;;;4941533;29;20575;-82
2021/12/22 17:22:07;;;;;;;14.00;11.13;;;;;;;;;;4941815;29;20206;-82
2021/12/22 17:24:36;;;;;;;12.55;10.23;;;;;;;;;;4942267;29;20193;-82
2021/12/22 17:27:03;;;;;;;15.13;12.70;;;;;;;;;;4942342;29;20209;-81
2021/12/22 17:29:31;;;;;;;16.70;12.57;;;;;;;;;;4942213;29;20233;-82
2021/12/22 17:31:59;;;;;;;16.23;12.02;;;;;;;;;;4941629;29;20210;-82
2021/12/22 17:34:28;;;;;;;14.80;12.10;;;;;;;;;;4941820;29;20728;-82
2021/12/22 17:36:57;;;;;;;14.82;12.23;;;;;;;;;;4942058;29;20220;-81
2021/12/22 17:39:25;;;;;;;15.30;12.57;;;;;;;;;;4941684;29;20237;-82
2021/12/22 17:41:52;;;;;;;15.90;12.75;;;;;;;;;;4941257;29;20201;-82
2021/12/22 17:44:20;;;;;;;20.80;14.05;;;;;;;;;;4941613;29;20198;-81
2021/12/22 17:46:47;;;;;;;15.57;12.85;;;;;;;;;;4941575;29;20205;-83
2021/12/22 17:49:15;;;;;;;14.07;11.13;;;;;;;;;;4941547;29;20214;-83
2021/12/22 17:51:42;;;;;;;15.55;12.85;;;;;;;;;;4941287;29;20208;-82
2021/12/22 17:54:11;;;;;;;19.15;14.93;;;;;;;;;;4941233;29;20205;-83
2021/12/22 17:56:38;;;;;;;13.85;11.48;;;;;;;;;;4941556;29;20210;-83
2021/12/22 17:59:05;;;;;;;16.88;12.02;;;;;;;;;;4941621;29;20259;-83
2021/12/22 18:01:36;;;;;;;17.65;13.10;;;;;;;;;;4941439;29;20228;-83
2021/12/22 18:04:03;;;;;;;26.30;17.23;;;;;;;;;;4942142;29;20673;-83
2021/12/22 18:06:33;;;;;;;59.13;31.20;;;;;;;;;;4941706;29;20206;-84
2021/12/22 18:09:02;;;;;;;24.50;15.27;;;;;;;;;;4940928;29;20221;-83
2021/12/22 18:11:31;;;;;;;18.92;13.02;;;;;;;;;;4943648;29;20268;-83
2021/12/22 18:13:59;;;;;;;18.50;11.80;;;;;;;;;;4941744;29;20238;-82
2021/12/22 18:16:27;;;;;;;13.32;10.02;;;;;;;;;;4940431;29;20212;-83
2021/12/22 18:18:54;;;;;;;11.15;8.43;;;;;;;;;;4941403;29;20324;-83
2021/12/22 18:21:24;;;;;;;9.35;8.27;;;;;;;;;;4943247;29;20599;-83
2021/12/22 18:23:52;;;;;;;13.13;8.65;;;;;;;;;;4941630;29;20190;-83
2021/12/22 18:26:19;;;;;;;11.50;9.05;;;;;;;;;;4958978;29;20209;-82
2021/12/22 18:28:48;;;;;;;15.02;9.32;;;;;;;;;;4959885;28;20212;-83
2021/12/22 18:31:16;;;;;;;8.93;7.28;;;;;;;;;;4960047;29;20232;-83
2021/12/22 18:33:46;;;;;;;9.95;8.50;;;;;;;;;;4960832;29;20631;-83
2021/12/22 18:36:14;;;;;;;9.55;7.90;;;;;;;;;;4942962;29;20198;-83
2021/12/22 18:38:43;;;;;;;10.90;7.90;;;;;;;;;;4940233;29;20210;-83
2021/12/22 18:41:21;;;;;;;13.32;9.85;;;;;;;;;;4940923;29;20639;-83
2021/12/22 18:43:50;;;;;;;10.80;9.23;;;;;;;;;;4940720;29;21016;-83
2021/12/22 18:46:21;;;;;;;12.27;8.95;;;;;;;;;;4939871;29;20210;-83
2021/12/22 18:48:49;;;;;;;12.65;9.32;;;;;;;;;;4939016;29;20282;-83
2021/12/22 18:51:16;;;;;;;12.70;11.38;;;;;;;;;;4940207;29;20328;-82
2021/12/22 18:53:44;;;;;;;11.95;9.68;;;;;;;;;;4940398;29;20210;-83
2021/12/22 18:56:11;;;;;;;11.88;8.77;;;;;;;;;;4939180;29;20205;-83
2021/12/22 18:58:38;;;;;;;14.10;9.43;;;;;;;;;;4939334;29;20210;-82
2021/12/22 19:01:07;;;;;;;13.25;9.68;;;;;;;;;;4939096;29;20719;-82
2021/12/22 19:03:35;;;;;;;13.10;9.88;;;;;;;;;;4939232;29;20228;-83
2021/12/22 19:06:02;;;;;;;13.38;9.57;;;;;;;;;;4938808;29;20212;-82
2021/12/22 19:08:29;;;;;;;10.60;8.05;;;;;;;;;;4938408;29;20680;-83
2021/12/22 19:10:57;;;;;;;8.73;6.40;;;;;;;;;;4938973;29;20228;-82
2021/12/22 19:13:24;;;;;;;10.20;9.07;;;;;;;;;;4939831;29;20201;-81
2021/12/22 19:15:52;;;;;;;10.70;8.63;;;;;;;;;;4938409;29;20691;-82
2021/12/22 19:18:21;;;;;;;11.02;9.10;;;;;;;;;;4939182;29;20202;-83
2021/12/22 19:20:49;;;;;;;11.02;8.15;;;;;;;;;;4939870;29;20243;-83
2021/12/22 19:23:18;;;;;;;9.45;8.35;;;;;;;;;;4939346;29;20210;-82
2021/12/22 19:25:46;;;;;;;10.40;8.27;;;;;;;;;;4939526;29;20209;-83
2021/12/22 19:28:14;;;;;;;11.40;7.70;;;;;;;;;;4939777;29;20182;-83
2021/12/22 19:30:44;;;;;;;10.85;7.65;;;;;;;;;;4940232;29;20226;-83
2021/12/22 19:33:14;;;;;;;10.68;7.78;;;;;;;;;;4939487;29;20210;-84
2021/12/22 19:35:45;;;;;;;9.93;8.25;;;;;;;;;;4940162;29;20228;-83
2021/12/22 19:38:14;;;;;;;12.15;7.70;;;;;;;;;;4939813;29;20186;-82
2021/12/22 19:40:45;;;;;;;9.57;7.30;;;;;;;;;;4938869;29;20232;-82
2021/12/22 19:43:13;;;;;;;8.65;6.75;;;;;;;;;;4939094;29;20186;-83
2021/12/22 19:45:40;;;;;;;12.25;7.78;;;;;;;;;;4939009;29;20209;-83
2021/12/22 19:48:08;;;;;;;9.45;7.30;;;;;;;;;;4939103;29;20205;-82
2021/12/22 19:50:36;;;;;;;9.48;7.78;;;;;;;;;;4939610;29;20240;-82
2021/12/22 19:53:05;;;;;;;9.07;7.10;;;;;;;;;;4939400;29;20205;-82
2021/12/22 19:55:33;;;;;;;6.93;5.90;;;;;;;;;;4944315;29;20193;-82
2021/12/22 19:58:02;;;;;;;8.23;6.68;;;;;;;;;;4958384;29;20195;-82
2021/12/22 20:00:32;;;;;;;8.70;6.45;;;;;;;;;;4958215;28;20232;-80
2021/12/22 20:03:01;;;;;;;7.75;6.95;;;;;;;;;;4958490;29;20213;-82
2021/12/22 20:05:30;;;;;;;8.10;6.35;;;;;;;;;;4953000;28;20201;-82
2021/12/22 20:07:57;;;;;;;7.72;6.97;;;;;;;;;;4937776;29;20221;-81
2021/12/22 20:10:26;;;;;;;8.63;7.25;;;;;;;;;;4936523;29;20218;-82
2021/12/22 20:12:55;;;;;;;7.55;6.78;;;;;;;;;;4936863;29;20202;-81
2021/12/22 20:15:24;;;;;;;10.45;7.53;;;;;;;;;;4937071;29;20202;-81
2021/12/22 20:17:52;;;;;;;9.73;7.35;;;;;;;;;;4937267;29;20216;-82
2021/12/22 20:20:23;;;;;;;9.23;6.88;;;;;;;;;;4936702;29;20241;-81
2021/12/22 20:22:51;;;;;;;10.25;8.65;;;;;;;;;;4938215;29;20619;-82
2021/12/22 20:25:19;;;;;;;8.75;6.93;;;;;;;;;;4938704;29;20209;-82
2021/12/22 20:27:49;;;;;;;8.60;6.40;;;;;;;;;;4938807;29;20189;-83
2021/12/22 20:30:20;;;;;;;7.50;5.55;;;;;;;;;;4938640;29;20233;-82
2021/12/22 20:32:49;;;;;;;7.10;6.07;;;;;;;;;;4938960;29;20535;-82
2021/12/22 20:35:17;;;;;;;7.13;6.32;;;;;;;;;;4938163;29;20206;-82
2021/12/22 20:37:45;;;;;;;7.30;6.60;;;;;;;;;;4938449;29;20190;-84
2021/12/22 20:40:14;;;;;;;8.85;7.32;;;;;;;;;;4947838;29;20231;-81
2021/12/22 20:42:43;;;;;;;9.15;7.40;;;;;;;;;;4956979;29;20201;-81
2021/12/22 20:45:12;;;;;;;12.57;9.13;;;;;;;;;;4941797;29;20300;-80
2021/12/22 20:47:39;;;;;;;9.73;8.23;;;;;;;;;;4941973;29;20194;-82
2021/12/22 20:50:09;;;;;;;9.75;7.72;;;;;;;;;;4944927;29;20237;-81
2021/12/22 20:52:36;;;;;;;10.50;7.72;;;;;;;;;;4937266;29;20249;-83
2021/12/22 20:55:07;;;;;;;11.23;7.57;;;;;;;;;;4924832;29;20203;-81
2021/12/22 20:57:35;;;;;;;9.23;8.32;;;;;;;;;;4922585;29;20250;-81
2021/12/22 21:00:02;;;;;;;9.88;7.03;;;;;;;;;;4931137;29;20218;-81
2021/12/22 21:02:32;;;;;;;9.55;7.53;;;;;;;;;;4942166;29;20193;-82
2021/12/22 21:04:59;;;;;;;11.18;7.45;;;;;;;;;;4941461;29;20206;-81
2021/12/22 21:07:27;;;;;;;10.50;7.30;;;;;;;;;;4940969;29;20240;-80
2021/12/22 21:09:54;;;;;;;8.68;7.45;;;;;;;;;;4926194;29;20221;-82
2021/12/22 21:12:22;;;;;;;10.93;7.80;;;;;;;;;;4940996;29;20257;-82
2021/12/22 21:14:50;;;;;;;10.02;8.18;;;;;;;;;;4935615;29;20202;-82
2021/12/22 21:17:17;;;;;;;11.80;7.72;;;;;;;;;;4939562;29;20284;-81
2021/12/22 21:19:46;;;;;;;11.48;8.98;;;;;;;;;;4940398;29;20225;-84
2021/12/22 21:22:14;;;;;;;12.43;8.38;;;;;;;;;;4942551;29;20233;-83
2021/12/22 21:24:41;;;;;;;10.05;8.77;;;;;;;;;;4924269;29;20202;-83
2021/12/22 21:27:09;;;;;;;12.50;8.57;;;;;;;;;;4940781;29;20201;-84
2021/12/22 21:29:36;;;;;;;10.48;8.35;;;;;;;;;;4941607;29;20230;-83
2021/12/22 21:32:04;;;;;;;10.10;8.63;;;;;;;;;;4941590;29;20209;-84
2021/12/22 21:34:32;;;;;;;10.32;8.18;;;;;;;;;;4929036;29;20292;-85
2021/12/22 21:37:01;;;;;;;11.63;9.40;;;;;;;;;;4923485;29;20205;-84
2021/12/22 21:39:28;;;;;;;12.63;9.65;;;;;;;;;;4922419;29;20226;-84
2021/12/22 21:41:56;;;;;;;9.90;8.18;;;;;;;;;;4921538;29;20230;-82
2021/12/22 21:44:23;;;;;;;11.43;8.30;;;;;;;;;;4929128;29;20183;-84
2021/12/22 21:46:51;;;;;;;10.02;7.68;;;;;;;;;;4921785;29;20197;-82
2021/12/22 21:49:18;;;;;;;11.90;8.68;;;;;;;;;;4939962;29;20200;-84
2021/12/22 21:51:46;;;;;;;11.27;8.85;;;;;;;;;;4927954;29;20199;-84
2021/12/22 21:54:17;;;;;;;13.13;9.68;;;;;;;;;;4935861;29;20201;-83
2021/12/22 21:56:44;;;;;;;11.45;8.88;;;;;;;;;;4940264;29;20182;-83
2021/12/22 21:59:12;;;;;;;10.48;8.60;;;;;;;;;;4940615;29;20220;-85
2021/12/22 22:01:39;;;;;;;10.00;8.45;;;;;;;;;;4936333;29;20228;-85
2021/12/22 22:04:06;;;;;;;11.32;8.63;;;;;;;;;;4925286;29;20201;-84
2021/12/22 22:06:34;;;;;;;13.38;9.65;;;;;;;;;;4932705;29;20218;-84
2021/12/22 22:09:02;;;;;;;13.80;10.23;;;;;;;;;;4935466;29;20287;-84
2021/12/22 22:11:31;;;;;;;12.85;10.10;;;;;;;;;;4929547;29;20194;-84
2021/12/22 22:13:58;;;;;;;12.48;9.35;;;;;;;;;;4940478;29;20194;-84
2021/12/22 22:16:26;;;;;;;12.75;10.20;;;;;;;;;;4940666;29;20633;-84
2021/12/22 22:18:55;;;;;;;12.85;9.38;;;;;;;;;;4939738;29;20213;-84
2021/12/22 22:21:22;;;;;;;13.60;10.07;;;;;;;;;;4930923;29;20230;-83
2021/12/22 22:23:50;;;;;;;13.82;10.52;;;;;;;;;;4940320;29;20196;-83
2021/12/22 22:26:17;;;;;;;11.15;9.15;;;;;;;;;;4939825;29;20205;-84
2021/12/22 22:28:46;;;;;;;11.88;9.23;;;;;;;;;;4940057;29;20216;-83
2021/12/22 22:31:13;;;;;;;15.45;9.82;;;;;;;;;;4923164;29;20214;-82
2021/12/22 22:33:40;;;;;;;18.58;10.30;;;;;;;;;;4921217;29;20186;-82
2021/12/22 22:36:08;;;;;;;11.48;8.80;;;;;;;;;;4921383;29;20221;-84
2021/12/22 22:38:35;;;;;;;14.23;9.68;;;;;;;;;;4920588;29;20205;-84
2021/12/22 22:41:03;;;;;;;12.48;9.82;;;;;;;;;;4922076;29;20229;-84
2021/12/22 22:43:30;;;;;;;11.85;9.35;;;;;;;;;;4920529;29;20203;-84
2021/12/22 22:45:59;;;;;;;13.73;9.00;;;;;;;;;;4920998;29;20194;-83
2021/12/22 22:48:26;;;;;;;12.85;9.35;;;;;;;;;;4920552;29;20636;-83
2021/12/22 22:50:54;;;;;;;16.33;9.88;;;;;;;;;;4922891;29;20250;-83
2021/12/22 22:53:21;;;;;;;15.57;10.60;;;;;;;;;;4938741;29;20209;-85
2021/12/22 22:55:49;;;;;;;11.57;9.25;;;;;;;;;;4940133;29;20186;-83
2021/12/22 22:58:16;;;;;;;13.93;10.35;;;;;;;;;;4939490;29;20183;-84
2021/12/22 23:00:46;;;;;;;13.10;9.95;;;;;;;;;;4938192;29;20639;-82
2021/12/22 23:03:16;;;;;;;11.20;9.75;;;;;;;;;;4919884;29;20218;-83
2021/12/22 23:05:43;;;;;;;12.10;9.35;;;;;;;;;;4935884;29;20205;-83
2021/12/22 23:08:11;;;;;;;13.57;10.05;;;;;;;;;;4939250;29;20552;-84
2021/12/22 23:10:39;;;;;;;12.68;10.38;;;;;;;;;;4938783;29;20233;-84
2021/12/22 23:13:07;;;;;;;12.95;9.95;;;;;;;;;;4938486;29;20198;-83
2021/12/22 23:15:34;;;;;;;14.02;11.38;;;;;;;;;;4938985;29;20626;-83
2021/12/22 23:18:08;;;;;;;14.95;9.95;;;;;;;;;;4938974;29;20205;-84
2021/12/22 23:20:39;;;;;;;12.30;9.30;;;;;;;;;;4937915;29;20222;-84
2021/12/22 23:23:08;;;;;;;14.27;10.40;;;;;;;;;;4919600;29;20210;-83
2021/12/22 23:25:36;;;;;;;13.52;10.52;;;;;;;;;;4919195;29;20292;-84
2021/12/22 23:28:05;;;;;;;12.35;10.00;;;;;;;;;;4920397;29;20661;-84
2021/12/22 23:30:33;;;;;;;17.08;12.98;;;;;;;;;;4919412;29;20229;-83
2021/12/22 23:33:01;;;;;;;17.02;11.55;;;;;;;;;;4920060;29;20190;-83
2021/12/22 23:35:28;;;;;;;14.77;11.02;;;;;;;;;;4919877;29;20210;-84
2021/12/22 23:38:09;;;;;;;13.07;11.43;;;;;;;;;;4919946;29;20210;-83
2021/12/22 23:40:44;;;;;;;15.35;10.88;;;;;;;;;;4919405;29;20575;-84
2021/12/22 23:43:38;;;;;;;15.38;10.80;;;;;;;;;;4923053;29;20281;-84
2021/12/22 23:49:03;;;;;;;13.63;9.65;;;;;;;;;;4919640;29;20270;-84
2021/12/22 23:51:32;;;;;;;14.77;10.30;;;;;;;;;;4919518;29;20774;-84
2021/12/22 23:54:01;;;;;;;13.77;10.70;;;;;;;;;;4919131;29;20209;-84
2021/12/22 23:56:28;;;;;;;11.52;8.98;;;;;;;;;;4918987;29;20194;-84
2021/12/22 23:58:56;;;;;;;14.73;10.82;;;;;;;;;;4919377;29;20229;-84
